Impacts METAR Board
IDs:

KCVG - Cincinnati Intl, KY, US

Updated at: 1900 UTC 21 Jun 2018
Potential Impact None Slight Moderate High
Time 21/07Z 21/08Z 21/09Z 21/10Z 21/11Z 21/12Z 21/13Z 21/14Z 21/15Z 21/16Z 21/17Z 21/18Z 21/19Z
Temp75 73 71 71 72 73 74 74 73 73 74 75 75
Dewpt70 71 71 71 72 72 72 71 69 71 73 73 72
Altim29.84 29.81 29.82 29.82 29.83 29.82 29.82 29.82 29.81 29.81 29.79 29.77 29.75
VIS10 10 5 5 10 10 8 5 3 1.5 5 6 10
CIG49 110 60 21 23 30 110 49 14 14 45 20 34
CoverOVCOVCOVCOVCOVCBKNOVCOVCOVCOVCOVCOVCOVC
FltCatVFRVFRMVFRMVFRMVFRMVFRVFRMVFRMVFRIFRMVFRMVFRVFR
WX-RA--VCTS -RA BR-RA BR-----RA-RA BRBRRA BR-RA BR-RA BR-RA
WDir260170190001901902002800180180160
WSpd7 5 4 0 0 4 7 4 6 0 6 7 9
WGst-- -- -- -- -- -- -- -- -- -- -- -- --
Raw hourly METARs
KCVG 210652Z 26007KT 10SM -RA FEW033 OVC049 24/21 A2984 RMK AO2 RAB52 SLP091 P0000 T02390211
KCVG 210752Z 17005KT 10SM FEW080 BKN110 OVC150 23/22 A2981 RMK AO2 LTG DSNT SE AND W AND NW RAE50 SLP082 P0003 T02280217
KCVG 210852Z 19004KT 5SM VCTS -RA BR SCT005 BKN060 OVC075 22/22 A2982 RMK AO2 LTG DSNT N AND S AND NW RAB11 CIG 039 36R SLP085 P0013 60016 T02170217 55007
KCVG 210952Z 00000KT 5SM -RA BR BKN021 BKN027 OVC037 22/22 A2982 RMK AO2 LTG DSNT N TSB15E51 SLP086 TS MOV NE P0024 T02170217
KCVG 211052Z 00000KT 10SM FEW009 BKN023 OVC030 22/22 A2983 RMK AO2 RAE11 SLP089 P0000 T02220222
KCVG 211152Z 19004KT 10SM FEW021 BKN030 BKN049 23/22 A2982 RMK AO2 SLP087 60040 70040 T02280222 10239 20217 50002
KCVG 211252Z 19007KT 8SM -RA FEW065 SCT085 BKN110 OVC150 23/22 A2982 RMK AO2 RAB47 SLP086 P0000 T02330222
KCVG 211404Z 20004KT 5SM -RA BR SCT008 BKN049 OVC060 23/22 A2982 RMK AO2 RAB1354 P0000 T02330217
KCVG 211452Z 28006KT 3SM BR FEW007 BKN014 OVC043 23/21 A2981 RMK AO2 SFC VIS 6 SLP084 RAB1354E40 P0001 60001 T02280206 58004
KCVG 211552Z 00000KT 1 1/2SM R18C/5500VP6000FT RA BR SCT007 OVC014 23/22 A2981 RMK AO2 SFC VIS 2 RAB03 CIG 009 36R SLP084 P0003 T02280217 $
KCVG 211652Z 18006KT 5SM -RA BR FEW007 SCT011 OVC045 23/23 A2979 RMK AO2 RAE14B35 SLP077 P0002 T02330228 $
KCVG 211803Z 18007KT 6SM -RA BR SCT006 BKN020 OVC060 24/23 A2977 RMK AO2 CIG 016V027 P0000 T02390228 $
KCVG 211852Z 16009KT 10SM -RA FEW009 BKN034 BKN070 OVC130 24/22 A2975 RMK AO2 SLP066 P0000 T02390222 $



Page loaded:  19:45 UTC  |   12:45 PM Pacific  |   01:45 PM Mountain  |   02:45 PM Central  |   03:45 PM Eastern

 

ADVISORIES

FORECASTS

FORECASTS

OBSERVATIONS

USER TOOLS

ABOUT US